Flight Track Log - Related Links

Times and Time Zones

All times are in EDT time to prevent confusion due to time zone crossing. See the EJA941 flight status page for this flight to view local times or setup timezone preferences in your user account.

Time Position Orientation Groundspeed Altitude Reporting Facility
EDT Latitude Longitude Course Direction KTS MPH feet Rate Location/Type
Mon 09:32:22 PM 43.7667 -87.8333 170° South 95 109 2,300  Level KMKE
Mon 09:33:28 PM 43.7000 -87.8167 170° South 269 310 4,800 2,862 Climbing KMKE
Mon 09:34:11 PM 43.6586 -87.7833 150° Southeast 265 305 7,500 2,971 Climbing Chicago Center
Mon 09:35:13 PM 43.5875 -87.7375 155° Southeast 277 319 10,000 1,210 Climbing Chicago Center
Mon 09:36:15 PM 43.4883 -87.6975 164° South 367 422 10,000  Level Chicago Center
Mon 09:37:17 PM 43.3856 -87.6911 177° South 367 422 10,000 -144 Level Chicago Center
Mon 09:38:20 PM 43.3053 -87.6972 183° South 293 337 9,700 -720 Descending Chicago Center
Mon 09:39:22 PM 43.2358 -87.7008 182° South 257 296 8,500 -823 Descending Chicago Center
Mon 09:40:24 PM 43.1578 -87.7069 183° South 243 280 8,000 -242 Descending Chicago Center
Mon 09:41:26 PM 43.0894 -87.7292 173° South 247 284 8,000 -484 Level Chicago Center
Mon 09:42:28 PM 43.0225 -87.7494 192° South 247 284 7,000 -968 Descending Chicago Center
Mon 09:43:30 PM 42.9569 -87.7714 194° South 242 278 6,000 -484 Descending Chicago Center
Mon 09:44:32 PM 42.8956 -87.7908 193° South 230 265 6,000 -629 Level Chicago Center
Mon 09:45:34 PM 42.8411 -87.8069 192° South 207 238 4,700 -968 Descending Chicago Center
Mon 09:46:36 PM 42.7772 -87.8283 194° South 202 232 4,000 -532 Descending Chicago Center
Mon 09:47:38 PM 42.7358 -87.8647 213° Southwest 189 217 3,600 -484 Descending Chicago Center
Mon 09:48:40 PM 42.7558 -87.9244 295° West 198 228 3,000 -290 Descending Chicago Center
Mon 09:49:42 PM 42.8011 -87.9197 North 172 198 3,000 -240 Level Chicago Center
Mon 09:50:45 PM 42.8425 -87.9122 North 154 177 2,500 -672 Descending Chicago Center
Mon 09:51:47 PM 42.8883 -87.9053 North 145 167 1,600 -726 Descending Chicago Center
Mon 09:52:49 PM 42.9233 -87.8997 North 137 158 1,000 -581 Descending Chicago Center

Login

Don't have an account? Register now (free) for customized features, flight alerts, and more!